createdAt,value
2017-04-30T00:01:20.196Z,13.22
2017-04-30T00:03:49.264Z,14.82
2017-04-30T00:06:18.314Z,13.36
2017-04-30T00:08:47.403Z,14.10
2017-04-30T00:11:16.467Z,14.86
2017-04-30T00:13:46.333Z,12.80
2017-04-30T00:16:15.363Z,13.02
2017-04-30T00:18:44.468Z,12.50
2017-04-30T00:21:13.519Z,12.96
2017-04-30T00:23:42.913Z,12.04
2017-04-30T00:26:11.987Z,12.92
2017-04-30T00:28:41.779Z,13.26
2017-04-30T00:31:11.625Z,11.88
2017-04-30T00:33:40.687Z,10.90
2017-04-30T00:36:10.516Z,12.22
2017-04-30T00:38:40.312Z,12.64
2017-04-30T00:41:10.682Z,10.44
2017-04-30T00:43:39.757Z,10.36
2017-04-30T00:46:09.589Z,10.66
2017-04-30T00:48:38.667Z,11.60
2017-04-30T00:51:07.754Z,11.38
2017-04-30T00:53:37.553Z,12.02
2017-04-30T00:56:07.388Z,12.76
2017-04-30T00:58:36.489Z,11.48
2017-04-30T01:01:05.541Z,11.14
2017-04-30T01:03:34.632Z,10.90
2017-04-30T01:06:03.752Z,14.70
2017-04-30T01:08:33.571Z,13.54
2017-04-30T01:11:03.412Z,12.00
2017-04-30T01:13:32.458Z,12.04
2017-04-30T01:16:01.821Z,13.50
2017-04-30T01:18:30.919Z,12.68
2017-04-30T01:20:59.963Z,11.06
2017-04-30T01:23:29.030Z,9.74
2017-04-30T01:25:58.102Z,9.66
2017-04-30T01:28:27.175Z,9.72
2017-04-30T01:30:56.496Z,9.70
2017-04-30T01:33:25.552Z,10.04
2017-04-30T01:35:54.716Z,9.42
2017-04-30T01:38:23.845Z,9.94
2017-04-30T01:40:52.943Z,10.04
2017-04-30T01:43:22.751Z,9.28
2017-04-30T01:45:51.847Z,10.92
2017-04-30T01:48:21.652Z,8.30
2017-04-30T01:50:50.722Z,9.48
2017-04-30T01:53:19.764Z,7.86
2017-04-30T01:55:48.844Z,7.70
2017-04-30T01:58:17.923Z,8.38
2017-04-30T02:00:46.944Z,7.42
2017-04-30T02:03:16.032Z,8.70
2017-04-30T02:05:45.101Z,8.46
2017-04-30T02:08:14.158Z,7.20
2017-04-30T02:10:43.193Z,9.32
2017-04-30T02:13:12.274Z,8.38
2017-04-30T02:15:41.697Z,11.30
2017-04-30T02:18:10.759Z,10.30
2017-04-30T02:20:39.852Z,8.24
2017-04-30T02:23:08.956Z,10.60
2017-04-30T02:25:38.009Z,8.02
2017-04-30T02:28:07.452Z,9.54
2017-04-30T02:30:36.752Z,7.86
2017-04-30T02:33:05.854Z,10.32
2017-04-30T02:35:34.907Z,9.86
2017-04-30T02:38:03.996Z,9.50
2017-04-30T02:40:33.069Z,10.66
2017-04-30T02:43:02.108Z,9.60
2017-04-30T02:45:31.159Z,9.18
2017-04-30T02:48:00.527Z,9.26
2017-04-30T02:50:29.868Z,10.54
2017-04-30T02:52:59.240Z,9.02
2017-04-30T02:55:28.344Z,9.94
2017-04-30T02:57:57.380Z,10.82
2017-04-30T03:00:26.455Z,10.26
2017-04-30T03:02:55.546Z,8.40
2017-04-30T03:05:24.580Z,10.38
2017-04-30T03:07:54.406Z,11.08
2017-04-30T03:10:24.188Z,11.12
2017-04-30T03:12:53.276Z,10.96
2017-04-30T03:15:22.332Z,10.10
2017-04-30T03:17:51.426Z,11.02
2017-04-30T03:20:20.497Z,9.70
2017-04-30T03:22:50.315Z,10.34
2017-04-30T03:25:19.368Z,9.72
2017-04-30T03:27:48.451Z,10.10
2017-04-30T03:30:17.519Z,9.50
2017-04-30T03:32:46.587Z,9.64
2017-04-30T03:35:16.406Z,11.10
2017-04-30T03:37:57.304Z,11.08
2017-04-30T03:40:44.384Z,10.18
2017-04-30T03:43:31.378Z,9.68
2017-04-30T03:46:18.840Z,11.68
2017-04-30T03:49:05.595Z,11.34
2017-04-30T03:51:52.623Z,11.32
2017-04-30T03:54:39.909Z,10.40
2017-04-30T03:57:26.772Z,9.68
2017-04-30T04:00:13.676Z,10.56
2017-04-30T04:03:00.602Z,10.02
2017-04-30T04:05:47.527Z,10.84
2017-04-30T04:08:34.361Z,10.34
2017-04-30T04:11:21.401Z,10.06
2017-04-30T04:14:08.749Z,14.02
2017-04-30T04:16:55.643Z,9.82
2017-04-30T04:19:42.535Z,10.16
2017-04-30T04:22:29.560Z,9.08
2017-04-30T04:25:16.645Z,9.82
2017-04-30T04:28:03.805Z,10.04
2017-04-30T04:30:50.651Z,10.38
2017-04-30T04:33:37.492Z,8.96
2017-04-30T04:36:24.262Z,9.02
2017-04-30T04:39:11.558Z,10.64
2017-04-30T04:41:58.430Z,7.80
2017-04-30T04:44:45.441Z,9.30
2017-04-30T04:47:32.323Z,9.60
2017-04-30T04:50:19.194Z,10.36
2017-04-30T04:53:06.086Z,9.20
2017-04-30T04:55:53.159Z,9.60
2017-04-30T04:58:40.199Z,8.74
2017-04-30T05:01:27.199Z,8.66
2017-04-30T05:04:14.203Z,8.34
2017-04-30T05:07:02.235Z,8.68
2017-04-30T05:09:49.079Z,9.54
2017-04-30T05:12:36.171Z,8.16
2017-04-30T05:15:24.110Z,7.32
2017-04-30T05:18:10.875Z,7.86
2017-04-30T05:20:57.759Z,9.54
2017-04-30T05:23:44.702Z,8.90
2017-04-30T05:26:32.652Z,10.02
2017-04-30T05:29:20.275Z,7.40
2017-04-30T05:32:08.614Z,8.08
2017-04-30T05:34:56.361Z,7.54
2017-04-30T05:37:44.058Z,7.60
2017-04-30T05:40:31.551Z,6.60
2017-04-30T05:43:19.282Z,8.26
2017-04-30T05:46:07.292Z,7.84
2017-04-30T05:48:55.822Z,8.70
2017-04-30T05:51:43.162Z,7.08
2017-04-30T05:54:31.210Z,7.60
2017-04-30T05:57:19.043Z,8.40
2017-04-30T06:00:06.709Z,7.60
2017-04-30T06:02:54.202Z,8.16
2017-04-30T06:05:42.344Z,8.50
2017-04-30T06:08:30.116Z,8.86
2017-04-30T06:11:18.015Z,8.06
2017-04-30T06:14:05.475Z,8.68
2017-04-30T06:16:53.590Z,8.88
2017-04-30T06:19:41.202Z,7.10
2017-04-30T06:22:29.502Z,8.28
2017-04-30T06:25:17.401Z,8.96
2017-04-30T06:28:05.048Z,7.72
2017-04-30T06:30:52.599Z,8.24
2017-04-30T06:33:40.162Z,8.12
2017-04-30T06:36:28.330Z,7.14
2017-04-30T06:39:15.203Z,6.70
2017-04-30T06:42:02.123Z,7.78
2017-04-30T06:44:49.112Z,7.10
2017-04-30T06:47:36.623Z,6.60
2017-04-30T06:50:23.707Z,6.22
2017-04-30T06:53:11.689Z,6.92
2017-04-30T06:55:58.767Z,7.52
2017-04-30T06:58:45.772Z,6.66
2017-04-30T07:01:32.792Z,6.76
2017-04-30T07:04:19.966Z,6.72
2017-04-30T07:07:06.867Z,6.14
2017-04-30T07:09:54.097Z,5.46
2017-04-30T07:12:41.061Z,6.56
2017-04-30T07:15:27.963Z,6.16
2017-04-30T07:18:16.260Z,5.92
2017-04-30T07:21:03.103Z,5.70
2017-04-30T07:23:50.197Z,6.90
2017-04-30T07:26:37.102Z,6.30
2017-04-30T07:29:24.122Z,6.38
2017-04-30T07:32:10.967Z,6.72
2017-04-30T07:34:57.837Z,6.06
2017-04-30T07:37:44.706Z,5.78
2017-04-30T07:40:31.691Z,6.40
2017-04-30T07:43:06.658Z,6.62
2017-04-30T07:45:35.723Z,5.70
2017-04-30T07:48:04.751Z,5.74
2017-04-30T07:50:33.822Z,6.64
2017-04-30T07:53:02.886Z,5.48
2017-04-30T07:55:31.916Z,5.76
2017-04-30T07:58:00.988Z,5.82
2017-04-30T08:00:34.162Z,4.64
2017-04-30T08:03:03.289Z,4.70
2017-04-30T08:05:33.055Z,6.00
2017-04-30T08:08:02.110Z,5.02
2017-04-30T08:10:31.145Z,4.30
2017-04-30T08:13:00.208Z,4.72
2017-04-30T08:15:29.231Z,4.90
2017-04-30T08:17:58.326Z,5.18
2017-04-30T08:20:27.363Z,4.84
2017-04-30T08:22:57.161Z,4.48
2017-04-30T08:25:26.209Z,5.46
2017-04-30T08:27:55.268Z,4.42
2017-04-30T08:30:25.035Z,5.04
2017-04-30T08:32:54.090Z,6.34
2017-04-30T08:35:23.138Z,4.70
2017-04-30T08:37:52.207Z,5.86
2017-04-30T08:40:21.246Z,6.64
2017-04-30T08:42:51.057Z,6.60
2017-04-30T08:45:20.139Z,5.78
2017-04-30T08:47:49.919Z,5.04
2017-04-30T08:50:18.984Z,5.00
2017-04-30T08:52:48.757Z,5.26
2017-04-30T08:55:17.830Z,5.02
2017-04-30T08:57:47.195Z,6.42
2017-04-30T09:00:16.265Z,6.94
2017-04-30T09:02:45.293Z,5.70
2017-04-30T09:05:14.356Z,4.60
2017-04-30T09:07:43.390Z,5.12
2017-04-30T09:10:12.459Z,7.06
2017-04-30T09:12:42.285Z,6.42
2017-04-30T09:15:11.320Z,6.72
2017-04-30T09:17:40.472Z,6.78
2017-04-30T09:20:09.772Z,5.62
2017-04-30T09:22:38.839Z,4.84
2017-04-30T09:25:07.893Z,5.26
2017-04-30T09:27:36.937Z,8.50
2017-04-30T09:30:06.004Z,5.50
2017-04-30T09:32:35.038Z,5.92
2017-04-30T09:35:04.873Z,5.20
2017-04-30T09:37:33.912Z,5.64
2017-04-30T09:40:02.976Z,5.04
2017-04-30T09:42:32.079Z,5.32
2017-04-30T09:45:01.125Z,5.30
2017-04-30T09:47:30.211Z,5.00
2017-04-30T09:49:59.258Z,5.40
2017-04-30T09:52:28.318Z,6.98
2017-04-30T09:54:58.100Z,3.90
2017-04-30T09:57:27.168Z,5.00
2017-04-30T09:59:56.209Z,5.18
2017-04-30T10:02:25.285Z,7.58
2017-04-30T10:04:54.420Z,6.08
2017-04-30T10:07:24.201Z,4.38
2017-04-30T10:09:53.413Z,4.94
2017-04-30T10:12:23.199Z,4.90
2017-04-30T10:14:52.285Z,4.60
2017-04-30T10:17:21.310Z,5.54
2017-04-30T10:19:50.640Z,4.40
2017-04-30T10:22:20.447Z,5.22
2017-04-30T10:24:50.474Z,3.68
2017-04-30T10:27:19.550Z,3.88
2017-04-30T10:29:48.592Z,3.86
2017-04-30T10:32:17.659Z,5.36
2017-04-30T10:34:46.729Z,5.54
2017-04-30T10:37:15.782Z,6.26
2017-04-30T10:39:44.835Z,4.44
2017-04-30T10:42:14.611Z,4.56
2017-04-30T10:44:43.689Z,6.46
2017-04-30T10:47:12.727Z,4.22
2017-04-30T10:49:41.844Z,3.98
2017-04-30T10:52:11.662Z,4.10
2017-04-30T10:54:41.437Z,3.62
2017-04-30T10:57:10.505Z,4.72
2017-04-30T10:59:39.824Z,5.06
2017-04-30T11:02:09.206Z,4.44
2017-04-30T11:04:38.272Z,4.44
2017-04-30T11:07:07.338Z,4.46
2017-04-30T11:09:36.385Z,5.24
2017-04-30T11:12:05.451Z,3.92
2017-04-30T11:14:34.492Z,4.68
2017-04-30T11:17:03.561Z,4.82
2017-04-30T11:19:32.641Z,5.26
2017-04-30T11:22:01.676Z,5.66
2017-04-30T11:24:30.764Z,5.90
2017-04-30T11:27:00.027Z,4.80
2017-04-30T11:29:29.096Z,4.48
2017-04-30T11:31:58.355Z,5.22
2017-04-30T11:34:27.411Z,4.98
2017-04-30T11:36:57.229Z,4.86
2017-04-30T11:39:27.002Z,5.70
2017-04-30T11:41:56.104Z,4.46
2017-04-30T11:44:25.141Z,6.56
2017-04-30T11:46:54.219Z,5.32
2017-04-30T11:49:24.022Z,5.30
2017-04-30T11:51:53.065Z,4.22
2017-04-30T11:54:22.130Z,3.98
2017-04-30T11:56:51.938Z,4.50
2017-04-30T11:59:21.702Z,4.48
2017-04-30T12:01:50.801Z,4.80
2017-04-30T12:04:19.839Z,4.76
2017-04-30T12:06:49.657Z,3.94
2017-04-30T12:09:19.440Z,4.52
2017-04-30T12:11:48.794Z,4.16
2017-04-30T12:14:17.823Z,4.06
2017-04-30T12:16:46.898Z,4.38
2017-04-30T12:19:15.923Z,3.92
2017-04-30T12:21:45.045Z,4.08
2017-04-30T12:24:14.876Z,3.50
2017-04-30T12:26:43.945Z,3.58
2017-04-30T12:29:13.161Z,4.54
2017-04-30T12:31:42.940Z,3.72
2017-04-30T12:34:12.019Z,3.50
2017-04-30T12:36:41.081Z,4.50
2017-04-30T12:39:10.153Z,2.94
2017-04-30T12:41:39.978Z,3.98
2017-04-30T12:44:09.016Z,4.74
2017-04-30T12:46:38.097Z,2.92
2017-04-30T12:49:07.170Z,3.88
2017-04-30T12:51:36.288Z,3.44
2017-04-30T12:54:05.337Z,4.60
2017-04-30T12:56:34.398Z,3.48
2017-04-30T12:59:03.505Z,4.06
2017-04-30T13:01:32.544Z,3.48
2017-04-30T13:04:02.349Z,3.88
2017-04-30T13:06:31.439Z,4.00
2017-04-30T13:09:01.251Z,3.64
2017-04-30T13:11:30.351Z,3.88
2017-04-30T13:13:59.445Z,4.18
2017-04-30T13:16:29.259Z,3.54
2017-04-30T13:18:58.315Z,3.52
2017-04-30T13:21:27.396Z,3.50
2017-04-30T13:23:56.424Z,5.40
2017-04-30T13:26:26.273Z,4.08
2017-04-30T13:28:56.042Z,3.98
2017-04-30T13:31:25.135Z,4.24
2017-04-30T13:33:54.183Z,4.00
2017-04-30T13:36:23.252Z,4.50
2017-04-30T13:38:53.039Z,4.64
2017-04-30T13:41:22.102Z,3.96
2017-04-30T13:43:51.164Z,4.38
2017-04-30T13:46:20.976Z,4.96
2017-04-30T13:48:50.760Z,5.02
2017-04-30T13:51:19.837Z,4.60
2017-04-30T13:53:48.884Z,3.68
2017-04-30T13:56:18.684Z,4.66
2017-04-30T13:58:48.503Z,5.50
2017-04-30T14:01:18.281Z,4.70
2017-04-30T14:03:47.572Z,4.72
2017-04-30T14:06:16.609Z,4.62
2017-04-30T14:08:46.428Z,4.34
2017-04-30T14:11:16.202Z,4.22
2017-04-30T14:13:45.298Z,3.60
2017-04-30T14:16:14.336Z,4.80
2017-04-30T14:18:44.168Z,4.68
2017-04-30T14:21:13.311Z,3.62
2017-04-30T14:23:42.396Z,3.86
2017-04-30T14:26:11.432Z,3.60
2017-04-30T14:28:41.252Z,4.06
2017-04-30T14:31:10.279Z,4.24
2017-04-30T14:33:39.473Z,4.26
2017-04-30T14:36:08.505Z,4.62
2017-04-30T14:38:37.607Z,4.70
2017-04-30T14:41:06.648Z,4.94
2017-04-30T14:43:35.679Z,3.72
2017-04-30T14:46:04.768Z,4.88
2017-04-30T14:48:33.801Z,4.14
2017-04-30T14:51:03.607Z,4.42
2017-04-30T14:53:32.692Z,5.42
2017-04-30T14:56:01.728Z,5.50
2017-04-30T14:58:30.801Z,6.04
2017-04-30T15:01:00.628Z,5.08
2017-04-30T15:03:29.716Z,6.30
2017-04-30T15:05:59.493Z,5.36
2017-04-30T15:08:28.581Z,5.74
2017-04-30T15:10:57.614Z,6.22
2017-04-30T15:13:27.411Z,5.72
2017-04-30T15:15:56.487Z,6.96
2017-04-30T15:18:25.523Z,5.96
2017-04-30T15:20:55.399Z,6.64
2017-04-30T15:23:24.441Z,5.84
2017-04-30T15:25:53.501Z,6.38
2017-04-30T15:28:22.576Z,7.32
2017-04-30T15:30:51.616Z,6.50
2017-04-30T15:33:21.731Z,6.38
2017-04-30T15:35:51.498Z,7.32
2017-04-30T15:38:20.571Z,8.44
2017-04-30T15:40:49.607Z,6.64
2017-04-30T15:43:18.674Z,8.36
2017-04-30T15:45:47.703Z,8.14
2017-04-30T15:48:16.796Z,7.12
2017-04-30T15:50:45.833Z,8.04
2017-04-30T15:53:14.916Z,8.30
2017-04-30T15:55:44.691Z,8.44
2017-04-30T15:58:13.761Z,7.82
2017-04-30T16:00:42.828Z,8.10
2017-04-30T16:03:11.923Z,8.24
2017-04-30T16:05:40.971Z,8.06
2017-04-30T16:08:10.049Z,7.36
2017-04-30T16:10:39.113Z,7.76
2017-04-30T16:13:08.188Z,7.30
2017-04-30T16:15:37.978Z,9.00
2017-04-30T16:18:07.021Z,9.08
2017-04-30T16:20:36.094Z,7.08
2017-04-30T16:23:05.873Z,7.08
2017-04-30T16:25:34.947Z,7.48
2017-04-30T16:28:03.980Z,6.64
2017-04-30T16:30:33.060Z,7.18
2017-04-30T16:33:02.123Z,7.32
2017-04-30T16:35:31.207Z,7.90
2017-04-30T16:38:00.263Z,8.24
2017-04-30T16:40:29.372Z,7.82
2017-04-30T16:42:58.435Z,7.82
2017-04-30T16:45:27.483Z,7.52
2017-04-30T16:47:56.543Z,7.78
2017-04-30T16:50:25.796Z,6.82
2017-04-30T16:52:54.931Z,7.82
2017-04-30T16:55:24.079Z,7.52
2017-04-30T16:57:53.160Z,6.76
2017-04-30T17:00:23.189Z,7.66
2017-04-30T17:02:52.260Z,7.80
2017-04-30T17:05:22.044Z,6.14
2017-04-30T17:07:51.107Z,6.32
2017-04-30T17:10:20.203Z,5.82
2017-04-30T17:12:49.264Z,6.36
2017-04-30T17:15:19.072Z,6.40
2017-04-30T17:17:48.848Z,5.32
2017-04-30T17:20:17.911Z,7.58
2017-04-30T17:22:46.954Z,5.32
2017-04-30T17:25:16.075Z,5.16
2017-04-30T17:27:45.880Z,5.62
2017-04-30T17:30:14.926Z,5.98
2017-04-30T17:32:43.992Z,6.52
2017-04-30T17:35:13.775Z,6.86
2017-04-30T17:37:42.826Z,6.92
2017-04-30T17:40:11.912Z,7.94
2017-04-30T17:42:40.953Z,7.30
2017-04-30T17:45:10.017Z,9.02
2017-04-30T17:47:39.064Z,8.10
2017-04-30T17:50:08.122Z,9.08
2017-04-30T17:52:38.383Z,8.50
2017-04-30T17:55:08.161Z,6.86
2017-04-30T17:57:37.340Z,7.64
2017-04-30T18:00:06.389Z,8.98
2017-04-30T18:02:35.479Z,8.78
2017-04-30T18:05:04.528Z,9.28
2017-04-30T18:07:33.591Z,9.86
2017-04-30T18:10:02.664Z,8.82
2017-04-30T18:12:31.696Z,8.42
2017-04-30T18:15:00.762Z,8.84
2017-04-30T18:17:29.824Z,10.44
2017-04-30T18:19:58.908Z,8.88
2017-04-30T18:22:28.059Z,9.28
2017-04-30T18:24:57.160Z,7.44
2017-04-30T18:27:26.240Z,6.16
2017-04-30T18:29:55.276Z,10.56
2017-04-30T18:32:24.347Z,7.82
2017-04-30T18:34:54.148Z,6.94
2017-04-30T18:37:24.176Z,6.78
2017-04-30T18:39:53.948Z,7.40
2017-04-30T18:42:23.027Z,6.16
2017-04-30T18:44:52.054Z,6.48
2017-04-30T18:47:21.124Z,6.20
2017-04-30T18:49:51.150Z,6.40
2017-04-30T18:52:20.492Z,6.82
2017-04-30T18:54:50.307Z,6.66
2017-04-30T18:57:20.080Z,5.98
2017-04-30T18:59:49.156Z,6.86
2017-04-30T19:02:18.193Z,6.40
2017-04-30T19:04:47.263Z,6.82
2017-04-30T19:07:16.283Z,6.68
2017-04-30T19:09:46.093Z,6.76
2017-04-30T19:12:15.916Z,6.34
2017-04-30T19:14:45.683Z,6.36
2017-04-30T19:17:14.761Z,6.78
2017-04-30T19:19:43.884Z,7.70
2017-04-30T19:22:12.918Z,7.80
2017-04-30T19:24:42.731Z,7.40
2017-04-30T19:27:12.498Z,7.66
2017-04-30T19:29:41.581Z,7.84
2017-04-30T19:32:10.631Z,7.04
2017-04-30T19:34:40.444Z,7.54
2017-04-30T19:37:10.216Z,8.36
2017-04-30T19:39:39.276Z,9.16
2017-04-30T19:42:08.343Z,9.04
2017-04-30T19:44:38.127Z,8.70
2017-04-30T19:47:07.198Z,8.20
2017-04-30T19:49:36.235Z,9.18
2017-04-30T19:52:05.563Z,9.26
2017-04-30T19:54:34.603Z,9.30
2017-04-30T19:57:03.677Z,10.32
2017-04-30T19:59:32.748Z,14.00
2017-04-30T20:02:01.795Z,9.28
2017-04-30T20:04:30.871Z,11.12
2017-04-30T20:06:59.920Z,10.96
2017-04-30T20:09:30.053Z,8.96
2017-04-30T20:11:59.855Z,9.52
2017-04-30T20:14:29.627Z,9.32
2017-04-30T20:16:58.687Z,9.46
2017-04-30T20:19:27.725Z,10.26
2017-04-30T20:21:56.808Z,10.70
2017-04-30T20:24:25.845Z,10.60
2017-04-30T20:26:55.654Z,10.22
2017-04-30T20:29:25.446Z,11.26
2017-04-30T20:31:54.515Z,10.52
2017-04-30T20:34:23.580Z,10.90
2017-04-30T20:36:52.653Z,13.02
2017-04-30T20:39:21.718Z,11.62
2017-04-30T20:41:50.752Z,13.58
2017-04-30T20:44:20.571Z,13.52
2017-04-30T20:46:50.348Z,15.02
2017-04-30T20:49:19.428Z,15.40
2017-04-30T20:51:48.520Z,15.56
2017-04-30T20:54:17.880Z,12.14
2017-04-30T20:56:46.915Z,13.00
2017-04-30T20:59:16.000Z,13.44
2017-04-30T21:01:45.376Z,13.06
2017-04-30T21:04:14.467Z,12.74
2017-04-30T21:06:43.772Z,11.94
2017-04-30T21:09:12.804Z,14.00
2017-04-30T21:11:41.879Z,12.48
2017-04-30T21:14:10.910Z,13.14
2017-04-30T21:16:40.265Z,13.22
2017-04-30T21:19:09.332Z,12.92
2017-04-30T21:21:39.131Z,12.62
2017-04-30T21:24:08.199Z,12.92
2017-04-30T21:26:37.283Z,12.38
2017-04-30T21:29:06.325Z,11.72
2017-04-30T21:31:35.389Z,12.26
2017-04-30T21:34:04.480Z,13.28
2017-04-30T21:36:33.570Z,14.66
2017-04-30T21:39:02.612Z,10.92
2017-04-30T21:41:31.696Z,13.94
2017-04-30T21:44:00.754Z,12.30
2017-04-30T21:46:29.795Z,13.08
2017-04-30T21:48:58.864Z,13.80
2017-04-30T21:51:27.903Z,11.50
2017-04-30T21:53:57.724Z,12.70
2017-04-30T21:56:27.027Z,11.56
2017-04-30T21:58:56.104Z,11.22
2017-04-30T22:01:25.925Z,10.74
2017-04-30T22:03:54.979Z,11.38
2017-04-30T22:06:24.332Z,11.02
2017-04-30T22:08:53.376Z,11.34
2017-04-30T22:11:22.449Z,11.32
2017-04-30T22:13:51.531Z,10.86
2017-04-30T22:16:20.574Z,11.36
2017-04-30T22:18:49.640Z,10.62
2017-04-30T22:21:18.709Z,12.82
2017-04-30T22:23:47.744Z,12.08
2017-04-30T22:26:16.808Z,11.42
2017-04-30T22:28:45.853Z,10.18
2017-04-30T22:31:14.910Z,11.40
2017-04-30T22:33:43.943Z,11.24
2017-04-30T22:36:13.019Z,10.74
2017-04-30T22:38:42.088Z,10.24
2017-04-30T22:41:11.123Z,11.08
2017-04-30T22:43:40.197Z,10.16
2017-04-30T22:46:09.240Z,11.58
2017-04-30T22:48:38.320Z,10.10
2017-04-30T22:51:07.389Z,10.52
2017-04-30T22:53:36.432Z,11.40
2017-04-30T22:56:06.233Z,9.84
2017-04-30T22:58:35.286Z,10.98
2017-04-30T23:01:04.363Z,10.02
2017-04-30T23:03:33.394Z,10.42
2017-04-30T23:06:02.450Z,10.82
2017-04-30T23:08:31.529Z,9.98
2017-04-30T23:11:01.298Z,9.76
2017-04-30T23:13:30.368Z,9.22
2017-04-30T23:15:59.407Z,11.40
2017-04-30T23:18:28.519Z,9.76
2017-04-30T23:20:58.286Z,9.76
2017-04-30T23:23:27.364Z,9.54
2017-04-30T23:25:56.396Z,10.16
2017-04-30T23:28:25.468Z,9.82
2017-04-30T23:30:54.527Z,10.58
2017-04-30T23:33:23.924Z,9.58
2017-04-30T23:35:53.731Z,10.56
2017-04-30T23:38:23.551Z,9.80
2017-04-30T23:40:53.315Z,10.38
2017-04-30T23:43:22.379Z,9.66
2017-04-30T23:45:51.415Z,10.28
2017-04-30T23:48:20.509Z,9.20
2017-04-30T23:50:49.554Z,10.06
2017-04-30T23:53:18.619Z,9.84
2017-04-30T23:55:47.664Z,9.70
2017-04-30T23:58:16.720Z,9.96
